Time;durP1;ratioP1;P1;durP2;ratioP2;P2;SDS_P1;SDS_P2;PMS_P1;PMS_P2;Temp;Humidity;BMP_temperature;BMP_pressure;BME280_temperature;BME280_humidity;BME280_pressure;Samples;Min_cycle;Max_cycle;Signal;HPM_P1;HPM_P2
2022/03/30 00:00:47;;;;;;;39.47;17.05;;;;;;;9.71;61.00;101013.91;4930669;28;20509;-53
2022/03/30 00:03:13;;;;;;;38.95;17.65;;;;;;;9.63;61.24;101010.28;4927607;28;20047;-54
2022/03/30 00:05:39;;;;;;;36.58;16.70;;;;;;;9.71;61.17;101003.50;4932668;28;20270;-54
2022/03/30 00:08:06;;;;;;;37.85;17.15;;;;;;;9.68;61.19;101006.06;4940989;28;20074;-53
2022/03/30 00:10:33;;;;;;;35.10;16.98;;;;;;;9.75;60.95;101000.13;4930307;28;20077;-56
2022/03/30 00:13:00;;;;;;;36.83;17.10;;;;;;;9.71;60.97;101003.50;4933067;28;20518;-52
2022/03/30 00:15:26;;;;;;;39.25;16.75;;;;;;;9.57;61.14;100997.16;4933081;28;20555;-52
2022/03/30 00:17:51;;;;;;;36.17;16.75;;;;;;;9.60;61.09;100999.81;4937474;28;20447;-51
2022/03/30 00:20:18;;;;;;;40.78;16.98;;;;;;;9.48;61.22;100997.84;4934348;28;20102;-55
2022/03/30 00:22:43;;;;;;;35.75;16.50;;;;;;;9.56;61.02;100993.69;4929388;28;20057;-51
2022/03/30 00:25:11;;;;;;;34.38;16.35;;;;;;;9.57;60.82;100997.16;4934733;28;20050;-53
2022/03/30 00:27:37;;;;;;;35.00;16.52;;;;;;;9.53;60.92;101000.53;4932281;28;20081;-55
2022/03/30 00:30:04;;;;;;;35.13;16.40;;;;;;;9.57;60.56;101000.66;4936535;28;20047;-53
2022/03/30 00:32:30;;;;;;;40.15;16.30;;;;;;;9.59;60.92;101001.53;4939746;28;20113;-53
2022/03/30 00:34:56;;;;;;;36.03;16.23;;;;;;;9.51;60.72;101002.25;4929079;28;20129;-54
2022/03/30 00:37:21;;;;;;;36.95;16.35;;;;;;;9.45;60.95;100997.81;4938364;28;20046;-51
2022/03/30 00:39:46;;;;;;;39.60;17.35;;;;;;;9.43;61.12;100996.88;4927918;28;20179;-52
2022/03/30 00:42:16;;;;;;;36.83;15.88;;;;;;;9.43;61.12;100993.41;4935215;28;20070;-52
2022/03/30 00:44:42;;;;;;;44.83;16.58;;;;;;;9.46;60.82;100996.06;4927632;28;20205;-51
2022/03/30 00:47:22;;;;;;;33.97;15.57;;;;;;;9.32;61.29;100981.06;4929170;28;20042;-54
2022/03/30 00:49:48;;;;;;;38.33;15.98;;;;;;;9.29;61.51;100994.00;4939267;28;20240;-54
2022/03/30 00:52:14;;;;;;;36.55;16.58;;;;;;;9.20;61.43;100986.03;4937742;28;20570;-51
2022/03/30 00:54:45;;;;;;;37.45;16.20;;;;;;;9.20;61.54;100980.81;4931727;28;20042;-52
2022/03/30 00:57:13;;;;;;;36.20;16.77;;;;;;;9.13;61.61;100980.66;4930168;28;20601;-51
2022/03/30 00:59:40;;;;;;;35.45;15.63;;;;;;;9.07;62.22;100978.81;4937992;28;20077;-51
2022/03/30 01:02:05;;;;;;;37.42;16.52;;;;;;;9.00;62.23;100981.25;4931712;28;20613;-54
2022/03/30 01:04:32;;;;;;;38.35;16.20;;;;;;;9.07;61.88;100975.31;4935479;28;20308;-55
2022/03/30 01:06:57;;;;;;;36.70;16.65;;;;;;;8.93;62.20;100967.22;4932315;28;20043;-51
2022/03/30 01:09:23;;;;;;;38.53;15.98;;;;;;;9.02;62.08;100961.34;4937918;28;20288;-55
2022/03/30 01:11:51;;;;;;;36.33;16.05;;;;;;;8.90;62.32;100964.56;4933176;28;20406;-54
2022/03/30 01:14:17;;;;;;;36.35;17.08;;;;;;;8.75;63.13;100966.81;4937349;28;20589;-52
2022/03/30 01:16:43;;;;;;;36.13;16.13;;;;;;;8.78;62.88;100962.56;4930750;28;20043;-52
2022/03/30 01:19:10;;;;;;;34.60;15.23;;;;;;;8.73;63.01;100958.09;4931558;28;20054;-51
2022/03/30 01:21:37;;;;;;;41.08;16.50;;;;;;;8.67;63.33;100960.56;4938763;28;20122;-54
2022/03/30 01:24:04;;;;;;;40.05;16.42;;;;;;;8.61;63.25;100953.50;4937109;28;20177;-54
2022/03/30 01:26:31;;;;;;;34.80;15.95;;;;;;;8.63;63.07;100957.03;4937197;28;20561;-53
2022/03/30 01:28:57;;;;;;;37.05;15.50;;;;;;;8.63;62.92;100950.97;4933010;28;20058;-53
2022/03/30 01:34:07;;;;;;;37.77;15.77;;;;;;;8.55;63.34;100950.78;4940245;28;20312;-54
2022/03/30 01:36:37;;;;;;;36.72;15.65;;;;;;;8.55;63.45;100958.56;4935597;28;20317;-53
2022/03/30 01:39:04;;;;;;;37.42;14.80;;;;;;;8.58;63.04;100953.47;4935234;28;20696;-54
2022/03/30 01:41:29;;;;;;;35.78;15.10;;;;;;;8.50;63.14;100944.59;4938979;28;20474;-51
2022/03/30 01:43:56;;;;;;;35.83;15.18;;;;;;;8.51;63.19;100943.78;4938297;28;20074;-54
2022/03/30 01:46:21;;;;;;;39.47;15.07;;;;;;;8.45;63.07;100947.09;4937054;28;20042;-54
2022/03/30 01:48:47;;;;;;;34.85;15.60;;;;;;;8.43;63.07;100943.59;4925146;28;20043;-52
2022/03/30 01:51:13;;;;;;;37.47;15.27;;;;;;;8.38;63.43;100940.00;4938216;28;20490;-54
2022/03/30 01:53:38;;;;;;;37.22;15.07;;;;;;;8.36;63.74;100936.50;4942435;28;20057;-50
2022/03/30 01:56:03;;;;;;;39.10;14.85;;;;;;;8.28;63.42;100935.41;4934159;28;20046;-53
2022/03/30 01:58:29;;;;;;;39.35;14.35;;;;;;;8.33;63.39;100936.44;4936040;28;20574;-53
2022/03/30 02:00:54;;;;;;;36.65;15.00;;;;;;;8.31;63.65;100932.03;4909658;28;22451;-56
2022/03/30 02:03:21;;;;;;;36.30;15.02;;;;;;;8.32;63.58;100929.47;4939875;28;20079;-53
2022/03/30 02:05:47;;;;;;;33.80;15.15;;;;;;;8.31;63.77;100924.25;4938027;28;20430;-51
2022/03/30 02:08:12;;;;;;;38.10;15.35;;;;;;;8.33;63.59;100920.84;4939958;28;20391;-53
2022/03/30 02:10:38;;;;;;;36.05;14.82;;;;;;;8.31;63.60;100921.63;4930159;28;20811;-54
2022/03/30 02:13:05;;;;;;;36.70;15.02;;;;;;;8.27;63.87;100918.06;4939666;28;20054;-53
2022/03/30 02:15:30;;;;;;;37.65;14.73;;;;;;;8.32;63.45;100926.00;4943839;28;20043;-53
2022/03/30 02:17:56;;;;;;;35.65;15.38;;;;;;;8.38;63.52;100923.53;4939278;28;20045;-54
2022/03/30 02:20:21;;;;;;;33.15;15.10;;;;;;;8.20;63.89;100918.78;4939910;28;20051;-53
2022/03/30 02:22:46;;;;;;;37.13;14.90;;;;;;;8.16;64.21;100919.56;4929223;28;20119;-54
2022/03/30 02:25:12;;;;;;;34.97;14.68;;;;;;;8.14;64.03;100916.03;4940731;28;20566;-51
2022/03/30 02:27:38;;;;;;;39.10;15.23;;;;;;;8.02;64.75;100914.03;4930042;28;20046;-54
2022/03/30 02:30:04;;;;;;;36.63;14.75;;;;;;;8.06;64.12;100901.97;4935326;28;20398;-53
2022/03/30 02:32:29;;;;;;;34.97;14.23;;;;;;;8.03;64.76;100900.19;4938617;28;20406;-55
2022/03/30 02:35:00;;;;;;;32.80;15.05;;;;;;;8.06;64.63;100899.38;4932029;28;22099;-54
2022/03/30 02:37:26;;;;;;;35.38;14.32;;;;;;;8.07;64.28;100902.03;4939942;28;20160;-54
2022/03/30 02:39:51;;;;;;;37.17;14.02;;;;;;;8.01;64.51;100894.09;4938061;28;20609;-54
2022/03/30 02:42:16;;;;;;;35.47;15.45;;;;;;;7.96;64.89;100893.09;4936230;28;20096;-53
2022/03/30 02:44:42;;;;;;;38.72;14.73;;;;;;;7.87;65.30;100894.59;4932284;28;20128;-56
2022/03/30 02:47:07;;;;;;;43.08;15.07;;;;;;;7.93;64.89;100889.56;4940774;28;20054;-55
2022/03/30 02:49:33;;;;;;;33.65;14.15;;;;;;;7.87;65.23;100879.03;4942378;28;20570;-52
2022/03/30 02:51:59;;;;;;;37.03;14.63;;;;;;;7.92;64.89;100875.72;4934061;28;20997;-54
2022/03/30 02:54:24;;;;;;;34.60;14.25;;;;;;;7.85;64.95;100884.19;4937070;28;20043;-54
2022/03/30 02:56:50;;;;;;;38.10;14.82;;;;;;;7.87;64.62;100884.22;4932087;28;20335;-53
2022/03/30 02:59:16;;;;;;;36.50;15.23;;;;;;;7.82;64.93;100886.69;4934208;28;20531;-54
2022/03/30 03:01:41;;;;;;;33.78;14.98;;;;;;;7.74;65.22;100880.44;4938969;28;20701;-55
2022/03/30 03:04:07;;;;;;;35.72;15.07;;;;;;;7.71;64.90;100876.06;4936040;28;20046;-53
2022/03/30 03:06:32;;;;;;;38.63;15.15;;;;;;;7.60;65.19;100874.03;4938052;28;20051;-53
2022/03/30 03:08:58;;;;;;;41.03;15.20;;;;;;;7.54;65.79;100877.34;4931013;28;20061;-55
2022/03/30 03:11:24;;;;;;;38.35;14.95;;;;;;;7.49;65.94;100871.16;4939333;28;20058;-54
2022/03/30 03:13:51;;;;;;;34.55;14.60;;;;;;;7.54;65.84;100871.28;4937876;28;20041;-54
2022/03/30 03:16:16;;;;;;;38.65;15.07;;;;;;;7.52;65.96;100870.34;4937441;28;20654;-52
2022/03/30 03:18:42;;;;;;;37.00;14.57;;;;;;;7.47;65.76;100859.00;4926465;28;20075;-51
2022/03/30 03:21:08;;;;;;;35.53;14.65;;;;;;;7.41;66.07;100867.50;4938951;28;20051;-54
2022/03/30 03:23:33;;;;;;;35.35;14.65;;;;;;;7.37;65.97;100877.75;4941478;28;20073;-53
2022/03/30 03:26:03;;;;;;;36.47;14.68;;;;;;;7.40;66.23;100878.69;4930318;28;20049;-54
2022/03/30 03:28:28;;;;;;;37.75;15.45;;;;;;;7.49;65.81;100881.53;4939342;28;20640;-53
2022/03/30 03:30:54;;;;;;;33.88;14.52;;;;;;;7.51;65.59;100873.78;4930584;28;21108;-53
2022/03/30 03:33:20;;;;;;;33.35;14.23;;;;;;;7.44;65.71;100872.75;4935922;28;20041;-54
2022/03/30 03:35:47;;;;;;;40.03;15.02;;;;;;;7.43;66.21;100877.91;4937346;28;20222;-51
2022/03/30 03:38:13;;;;;;;35.97;14.65;;;;;;;7.55;65.96;100880.81;4934318;28;20050;-53
2022/03/30 03:40:40;;;;;;;31.77;13.45;;;;;;;7.59;65.89;100883.53;4928394;28;20051;-53
2022/03/30 03:43:06;;;;;;;39.65;14.35;;;;;;;7.58;65.76;100881.75;4935178;28;20051;-50
2022/03/30 03:45:33;;;;;;;35.63;14.70;;;;;;;7.50;65.61;100872.91;4940062;28;20876;-50
2022/03/30 03:47:58;;;;;;;37.47;14.77;;;;;;;7.53;65.14;100879.91;4930792;28;20233;-55
2022/03/30 03:50:25;;;;;;;35.08;14.23;;;;;;;7.41;65.15;100869.19;4933517;28;20034;-54
2022/03/30 03:52:50;;;;;;;35.85;14.15;;;;;;;7.42;64.89;100865.78;4937341;28;20618;-54
2022/03/30 03:55:16;;;;;;;36.38;14.23;;;;;;;7.34;65.03;100861.25;4925600;28;20100;-55
2022/03/30 03:57:41;;;;;;;32.47;14.13;;;;;;;7.29;65.18;100856.78;4935271;28;20490;-53
2022/03/30 04:00:09;;;;;;;34.50;14.55;;;;;;;7.31;65.57;100856.00;4929245;28;20130;-53
2022/03/30 04:02:35;;;;;;;37.47;14.20;;;;;;;7.26;66.24;100849.81;4932742;28;20058;-54
2022/03/30 04:05:00;;;;;;;35.95;14.32;;;;;;;7.21;65.94;100847.94;4936501;28;20047;-53
2022/03/30 04:07:26;;;;;;;34.25;14.55;;;;;;;7.16;65.98;100842.63;4933484;28;20055;-52
2022/03/30 04:09:51;;;;;;;37.25;14.98;;;;;;;7.11;66.57;100846.81;4938402;28;20236;-54
2022/03/30 04:12:17;;;;;;;35.70;13.80;;;;;;;7.12;66.25;100847.69;4936136;28;20050;-53
2022/03/30 04:14:42;;;;;;;32.85;13.70;;;;;;;7.06;66.05;100838.06;4928622;28;20153;-52
2022/03/30 04:17:07;;;;;;;34.00;13.80;;;;;;;6.97;66.18;100832.59;4931218;28;20746;-53
2022/03/30 04:19:33;;;;;;;32.47;13.48;;;;;;;6.92;66.23;100831.59;4932580;28;20051;-55
2022/03/30 04:21:58;;;;;;;36.08;14.68;;;;;;;6.87;66.19;100844.44;4926098;28;20043;-54
2022/03/30 04:24:24;;;;;;;32.92;14.25;;;;;;;6.81;66.58;100839.09;4934704;28;20471;-51
2022/03/30 04:26:49;;;;;;;30.60;13.90;;;;;;;6.78;66.23;100840.69;4929379;28;20055;-55
2022/03/30 04:29:15;;;;;;;33.75;13.38;;;;;;;6.71;66.87;100843.97;4937829;28;20039;-56
2022/03/30 04:31:41;;;;;;;34.13;13.75;;;;;;;6.71;66.29;100843.97;4927133;28;20046;-54
2022/03/30 04:34:06;;;;;;;38.53;14.82;;;;;;;6.69;66.24;100846.53;4939697;28;20066;-52
2022/03/30 04:36:32;;;;;;;34.45;14.38;;;;;;;6.64;66.58;100836.88;4936909;28;20043;-55
2022/03/30 04:38:57;;;;;;;33.60;13.85;;;;;;;6.69;66.66;100841.34;4933015;28;20574;-52
2022/03/30 04:41:23;;;;;;;37.35;14.75;;;;;;;6.55;67.66;100834.00;4936846;28;20054;-52
2022/03/30 04:43:48;;;;;;;34.08;14.00;;;;;;;6.53;67.64;100829.66;4935424;28;20531;-52
2022/03/30 04:46:14;;;;;;;34.63;14.27;;;;;;;6.58;67.39;100836.69;4931875;28;20701;-55
2022/03/30 04:48:39;;;;;;;40.08;15.50;;;;;;;6.53;68.33;100840.88;4923580;28;20055;-50
2022/03/30 04:51:05;;;;;;;36.22;13.73;;;;;;;6.67;67.35;100842.13;4934631;28;20054;-56
2022/03/30 04:53:31;;;;;;;31.88;13.82;;;;;;;6.56;67.44;100841.81;4935685;28;20065;-53
2022/03/30 04:55:57;;;;;;;33.72;14.60;;;;;;;6.47;67.62;100831.19;4931504;28;20745;-54
2022/03/30 04:58:22;;;;;;;37.97;14.65;;;;;;;6.43;67.79;100832.81;4932888;28;20351;-53
2022/03/30 05:01:02;;;;;;;38.58;15.05;;;;;;;6.45;68.64;100838.94;4932980;28;20085;-51
2022/03/30 05:03:27;;;;;;;38.50;14.57;;;;;;;6.44;68.39;100833.69;4940926;28;20047;-53
2022/03/30 05:05:53;;;;;;;38.55;16.00;;;;;;;6.44;68.67;100831.97;4941030;28;20073;-55
2022/03/30 05:08:18;;;;;;;35.80;14.77;;;;;;;6.49;68.49;100833.00;4938278;28;20054;-56
2022/03/30 05:10:46;;;;;;;36.17;14.48;;;;;;;6.45;68.26;100831.16;4936866;28;20126;-54
2022/03/30 05:13:12;;;;;;;39.85;14.68;;;;;;;6.44;68.42;100826.81;4934535;28;20561;-54
2022/03/30 05:15:37;;;;;;;39.95;14.52;;;;;;;6.42;68.15;100822.41;4941535;28;20046;-54
2022/03/30 05:18:03;;;;;;;39.10;15.85;;;;;;;6.39;68.87;100815.44;4940815;28;20047;-54
2022/03/30 05:20:28;;;;;;;44.30;15.95;;;;;;;6.44;69.21;100808.69;4940650;28;20062;-54
2022/03/30 05:22:54;;;;;;;39.78;15.35;;;;;;;6.49;69.15;100813.97;4933190;28;20057;-54
2022/03/30 05:25:22;;;;;;;44.05;15.50;;;;;;;6.56;69.38;100812.44;4944032;28;20125;-51
2022/03/30 05:27:47;;;;;;;46.33;16.42;;;;;;;6.69;69.12;100814.56;4935977;28;20679;-51
2022/03/30 05:30:14;;;;;;;38.58;15.85;;;;;;;6.70;68.90;100812.00;4944176;28;20414;-53
2022/03/30 05:32:44;;;;;;;46.47;15.93;;;;;;;6.70;69.04;100805.94;4932684;28;20077;-52
2022/03/30 05:35:10;;;;;;;42.10;15.70;;;;;;;6.72;68.74;100805.13;4939860;28;20372;-54
2022/03/30 05:37:36;;;;;;;44.47;15.82;;;;;;;6.82;68.65;100814.06;4939142;28;20921;-52
2022/03/30 05:40:04;;;;;;;34.47;15.07;;;;;;;6.90;68.24;100808.22;4939270;28;20487;-56
2022/03/30 05:42:30;;;;;;;44.92;14.73;;;;;;;6.93;68.16;100803.16;4942132;28;20053;-55
2022/03/30 05:44:56;;;;;;;39.28;15.25;;;;;;;7.00;68.38;100803.31;4922115;28;20401;-52
2022/03/30 05:47:21;;;;;;;42.10;15.57;;;;;;;7.00;68.11;100801.59;4939282;28;20457;-54
2022/03/30 05:49:47;;;;;;;40.28;15.15;;;;;;;7.14;67.97;100786.38;4938138;28;20046;-56
2022/03/30 05:52:12;;;;;;;43.58;16.02;;;;;;;7.17;67.95;100797.72;4940800;28;20535;-52
2022/03/30 05:54:38;;;;;;;49.40;16.58;;;;;;;7.23;67.59;100800.47;4931492;28;20482;-55
2022/03/30 05:57:05;;;;;;;38.95;15.27;;;;;;;7.36;67.51;100801.66;4932662;28;20444;-55
2022/03/30 05:59:39;;;;;;;41.08;15.98;;;;;;;7.38;67.12;100804.31;4937727;28;20097;-55
2022/03/30 06:02:07;;;;;;;39.65;15.23;;;;;;;7.60;66.92;100801.38;4936144;28;20034;-55
2022/03/30 06:04:32;;;;;;;39.33;15.55;;;;;;;7.65;66.17;100811.03;4934122;28;20042;-55
2022/03/30 06:06:59;;;;;;;45.75;15.80;;;;;;;7.80;65.99;100814.84;4935679;28;20054;-54
2022/03/30 06:09:25;;;;;;;42.40;15.30;;;;;;;8.08;65.51;100807.72;4944112;28;20074;-52
2022/03/30 06:11:50;;;;;;;33.75;15.45;;;;;;;8.31;64.23;100809.94;4938110;28;20546;-53
2022/03/30 06:14:16;;;;;;;32.80;15.27;;;;;;;8.79;64.16;100808.34;4932462;28;20039;-51
2022/03/30 06:16:43;;;;;;;44.95;16.42;;;;;;;9.26;61.47;100810.97;4932644;28;20152;-55
2022/03/30 06:19:09;;;;;;;38.40;16.02;;;;;;;9.60;59.06;100809.81;4932326;28;20165;-53
2022/03/30 06:21:35;;;;;;;35.92;16.10;;;;;;;10.07;57.78;100811.41;4937599;28;20463;-54
2022/03/30 06:24:01;;;;;;;35.05;15.85;;;;;;;10.31;57.04;100815.22;4937459;28;20209;-54
2022/03/30 06:26:27;;;;;;;35.90;16.17;;;;;;;10.63;55.63;100811.31;4940997;28;20517;-51
2022/03/30 06:28:53;;;;;;;38.67;16.02;;;;;;;10.96;55.92;100805.63;4933364;28;20678;-51
2022/03/30 06:31:18;;;;;;;36.38;15.93;;;;;;;11.21;54.74;100805.00;4934770;28;20039;-54
2022/03/30 06:33:45;;;;;;;35.15;15.85;;;;;;;11.73;53.76;100802.81;4939087;28;20487;-53
2022/03/30 06:36:11;;;;;;;36.00;16.15;;;;;;;12.17;52.40;100800.56;4937214;28;20490;-53
2022/03/30 06:38:36;;;;;;;37.33;15.43;;;;;;;12.38;49.79;100805.03;4932408;28;20335;-56
2022/03/30 06:41:03;;;;;;;31.27;15.45;;;;;;;12.68;49.46;100801.66;4937071;28;20773;-54
2022/03/30 06:43:28;;;;;;;35.42;14.85;;;;;;;12.98;48.32;100807.00;4941661;28;20588;-51
2022/03/30 06:45:54;;;;;;;30.67;14.57;;;;;;;13.09;47.58;100800.03;4938476;28;20050;-55
2022/03/30 06:48:19;;;;;;;31.38;15.35;;;;;;;13.68;47.70;100797.47;4931590;28;20054;-50
2022/03/30 06:50:45;;;;;;;28.98;14.57;;;;;;;13.91;46.18;100800.06;4930200;28;20129;-54
2022/03/30 06:53:10;;;;;;;30.83;14.70;;;;;;;13.83;46.99;100799.22;4942179;28;20089;-55
2022/03/30 06:55:38;;;;;;;33.08;14.85;;;;;;;14.23;45.49;100795.66;4938660;28;20047;-53
2022/03/30 06:58:04;;;;;;;30.25;15.15;;;;;;;14.25;44.90;100797.41;4939312;28;20042;-54
2022/03/30 07:00:31;;;;;;;32.05;14.80;;;;;;;14.32;45.85;100794.75;4934336;28;20878;-53
2022/03/30 07:02:56;;;;;;;28.33;15.20;;;;;;;14.55;46.87;100784.22;4935812;28;20093;-52
2022/03/30 07:05:21;;;;;;;34.40;15.27;;;;;;;14.91;44.58;100781.41;4941027;28;20466;-52
2022/03/30 07:10:33;;;;;;;34.40;16.10;;;;;;;14.84;44.67;100784.94;4929765;28;20490;-53
2022/03/30 07:13:02;;;;;;;32.25;16.05;;;;;;;15.36;44.31;100785.47;4929922;28;20841;-54
2022/03/30 07:15:27;;;;;;;35.40;15.80;;;;;;;15.69;43.41;100779.09;4935070;28;20039;-54
2022/03/30 07:17:55;;;;;;;31.50;15.82;;;;;;;15.75;42.50;100786.03;4935132;28;20039;-53
2022/03/30 07:20:24;;;;;;;26.92;15.45;;;;;;;15.51;42.92;100783.59;4940035;28;20062;-53
2022/03/30 07:22:50;;;;;;;35.60;15.60;;;;;;;15.29;43.66;100783.78;4926690;28;20805;-55
2022/03/30 07:25:17;;;;;;;30.83;16.27;;;;;;;14.82;43.93;100784.06;4937935;28;20056;-56
2022/03/30 07:27:46;;;;;;;33.15;16.20;;;;;;;15.01;44.81;100784.81;4931685;28;20053;-53
2022/03/30 07:30:14;;;;;;;36.67;16.58;;;;;;;15.29;43.63;100775.91;4933214;28;20047;-53
2022/03/30 07:32:42;;;;;;;35.53;17.05;;;;;;;14.81;44.17;100776.22;4918763;28;20114;-54
2022/03/30 07:35:10;;;;;;;33.63;16.45;;;;;;;14.50;45.18;100783.34;4937193;28;20601;-55
2022/03/30 07:37:37;;;;;;;33.95;16.02;;;;;;;14.74;45.18;100783.25;4936268;28;20764;-56
2022/03/30 07:40:03;;;;;;;33.10;16.70;;;;;;;15.10;44.45;100776.91;4939954;28;20043;-55
2022/03/30 07:42:29;;;;;;;32.08;16.60;;;;;;;15.40;43.73;100781.06;4935705;28;20110;-56
2022/03/30 07:44:54;;;;;;;32.63;16.63;;;;;;;15.44;44.14;100781.03;4931019;28;20086;-52
2022/03/30 07:47:20;;;;;;;29.70;16.50;;;;;;;14.42;45.52;100779.88;4936849;28;20351;-55
2022/03/30 07:49:46;;;;;;;34.78;17.83;;;;;;;13.29;49.16;100779.16;4934332;28;20050;-55
2022/03/30 07:52:11;;;;;;;32.13;16.42;;;;;;;13.21;49.66;100773.91;4938795;28;20212;-55
2022/03/30 07:54:36;;;;;;;32.85;17.33;;;;;;;12.82;50.75;100776.41;4929896;28;20290;-56
2022/03/30 07:57:02;;;;;;;32.22;17.25;;;;;;;12.88;50.57;100772.06;4937588;28;20042;-54
2022/03/30 07:59:28;;;;;;;31.77;16.80;;;;;;;12.91;51.03;100765.97;4938763;28;20192;-53
2022/03/30 08:01:54;;;;;;;35.05;16.20;;;;;;;13.00;50.64;100777.31;4934233;28;20045;-55
2022/03/30 08:04:22;;;;;;;32.92;16.58;;;;;;;13.15;50.38;100766.03;4937539;28;20383;-55
2022/03/30 08:06:48;;;;;;;32.58;15.82;;;;;;;12.68;51.77;100778.13;4927161;28;20192;-52
2022/03/30 08:09:13;;;;;;;38.13;17.80;;;;;;;12.73;52.92;100779.00;4932448;28;20585;-55
2022/03/30 08:11:39;;;;;;;35.50;16.88;;;;;;;12.28;53.29;100772.72;4941980;28;20508;-53
2022/03/30 08:14:04;;;;;;;28.63;14.80;;;;;;;12.57;52.74;100770.22;4935561;28;20066;-53
2022/03/30 08:16:34;;;;;;;30.52;15.45;;;;;;;12.53;53.11;100778.94;4934207;28;20043;-55
2022/03/30 08:19:00;;;;;;;27.40;14.48;;;;;;;12.53;52.88;100768.47;4929355;28;20051;-55
2022/03/30 08:24:09;;;;;;;29.63;14.43;;;;;;;12.10;54.58;100780.47;4938595;28;20518;-53
2022/03/30 08:26:37;;;;;;;26.85;14.40;;;;;;;12.03;54.71;100776.94;4927225;28;20309;-56
2022/03/30 08:29:03;;;;;;;25.58;13.73;;;;;;;11.43;56.26;100773.88;4934545;28;20081;-53
2022/03/30 08:31:28;;;;;;;32.50;13.48;;;;;;;12.16;54.49;100775.28;4937501;28;20118;-51
2022/03/30 08:33:54;;;;;;;24.65;12.77;;;;;;;12.23;55.24;100770.94;4934305;28;20038;-52
2022/03/30 08:36:20;;;;;;;21.08;8.77;;;;;;;12.23;54.84;100773.56;4936001;28;20114;-52
2022/03/30 08:38:45;;;;;;;18.02;8.07;;;;;;;12.15;53.26;100768.28;4927034;28;20043;-53
2022/03/30 08:41:11;;;;;;;16.83;8.07;;;;;;;12.90;52.28;100770.34;4931450;28;20366;-51
2022/03/30 08:43:36;;;;;;;13.07;7.75;;;;;;;12.60;52.33;100760.66;4939455;28;20050;-53
2022/03/30 08:46:03;;;;;;;13.13;7.47;;;;;;;13.02;52.10;100761.63;4932647;28;20047;-57
2022/03/30 08:48:29;;;;;;;12.70;6.82;;;;;;;12.66;52.52;100764.16;4925583;28;20047;-55
2022/03/30 08:50:56;;;;;;;10.30;6.13;;;;;;;12.85;52.22;100759.00;4929591;28;20058;-53
2022/03/30 08:53:24;;;;;;;14.30;6.53;;;;;;;13.45;51.00;100757.34;4930840;28;20512;-53
2022/03/30 08:55:49;;;;;;;11.88;6.40;;;;;;;13.55;50.18;100761.69;4936982;28;20157;-54
2022/03/30 08:58:15;;;;;;;11.68;6.28;;;;;;;14.00;49.58;100755.50;4939111;28;20908;-54
2022/03/30 09:00:40;;;;;;;8.90;5.50;;;;;;;13.40;49.30;100744.25;4922656;28;20056;-51
2022/03/30 09:03:07;;;;;;;11.18;5.60;;;;;;;13.67;48.56;100753.81;4940412;28;20054;-55
2022/03/30 09:05:37;;;;;;;11.10;5.78;;;;;;;13.66;48.57;100756.47;4937423;28;20153;-53
2022/03/30 09:08:20;;;;;;;11.35;6.32;;;;;;;13.61;49.14;100752.94;4928647;28;20519;-54
2022/03/30 09:10:50;;;;;;;12.35;5.60;;;;;;;13.46;48.77;100751.22;4928581;28;20153;-52
2022/03/30 09:13:19;;;;;;;12.77;6.55;;;;;;;13.39;49.19;100744.25;4939050;28;20043;-54
2022/03/30 09:15:47;;;;;;;10.05;5.75;;;;;;;13.54;49.49;100743.38;4932014;28;20050;-52
2022/03/30 09:18:16;;;;;;;9.02;5.40;;;;;;;13.66;49.20;100751.22;4932208;28;20497;-54
2022/03/30 09:20:48;;;;;;;9.60;5.32;;;;;;;13.63;48.97;100754.69;4925929;28;20050;-54
2022/03/30 09:23:14;;;;;;;10.73;5.20;;;;;;;13.49;48.96;100752.94;4931757;28;20046;-52
2022/03/30 09:25:44;;;;;;;9.00;5.30;;;;;;;13.69;48.21;100746.84;4926028;28;20180;-50
2022/03/30 09:28:10;;;;;;;8.65;4.90;;;;;;;14.12;47.83;100741.50;4930317;28;20078;-55
2022/03/30 09:30:36;;;;;;;13.35;5.32;;;;;;;14.23;48.23;100737.97;4929000;28;20046;-59
2022/03/30 09:33:01;;;;;;;10.20;5.88;;;;;;;14.02;47.13;100745.03;4938175;28;20790;-52
2022/03/30 09:35:31;;;;;;;11.18;6.10;;;;;;;14.17;47.86;100739.72;4935955;28;20503;-53
2022/03/30 09:38:36;;;;;;;16.08;5.95;;;;;;;14.65;46.64;100740.41;4928352;28;20430;-53
2022/03/30 09:41:03;;;;;;;11.32;6.10;;;;;;;14.49;46.77;100737.88;4901561;28;20499;-53
2022/03/30 09:43:34;;;;;;;9.45;6.15;;;;;;;14.47;46.42;100729.16;4931375;28;20054;-54
2022/03/30 09:46:03;;;;;;;10.63;6.10;;;;;;;14.67;46.57;100726.41;4939566;28;20537;-52
2022/03/30 09:48:49;;;;;;;11.50;6.00;;;;;;;14.37;46.26;100726.53;4939355;28;20043;-53
2022/03/30 09:51:16;;;;;;;11.32;6.22;;;;;;;14.29;46.98;100725.69;4939435;28;20209;-55
2022/03/30 09:53:42;;;;;;;11.77;6.40;;;;;;;14.53;45.25;100720.38;4938246;28;20049;-50
2022/03/30 09:56:14;;;;;;;13.77;6.07;;;;;;;14.83;45.27;100717.56;4933615;28;20474;-53
2022/03/30 09:58:40;;;;;;;10.77;6.07;;;;;;;14.71;45.20;100714.16;4932038;28;20471;-55
2022/03/30 10:01:19;;;;;;;9.20;6.20;;;;;;;15.14;44.27;100715.59;4938068;28;20499;-54
2022/03/30 10:03:59;;;;;;;10.88;6.07;;;;;;;15.12;43.36;100706.00;4939176;28;20565;-52
2022/03/30 10:06:33;;;;;;;11.93;6.32;;;;;;;15.06;44.07;100706.94;4922435;28;20042;-54
2022/03/30 10:08:58;;;;;;;12.07;6.57;;;;;;;15.10;45.16;100710.38;4928331;28;20416;-50
2022/03/30 10:11:27;;;;;;;12.80;6.72;;;;;;;14.23;44.86;100709.13;4938639;28;20078;-53
2022/03/30 10:13:55;;;;;;;12.60;7.30;;;;;;;14.35;45.06;100704.69;4940271;28;20120;-53
2022/03/30 10:16:22;;;;;;;16.15;9.13;;;;;;;14.72;46.40;100703.66;4933967;28;20608;-54
2022/03/30 10:18:51;;;;;;;15.77;8.93;;;;;;;15.17;43.85;100710.34;4930892;28;20383;-54
2022/03/30 10:21:23;;;;;;;16.58;9.02;;;;;;;14.96;45.47;100706.09;4923841;28;20085;-55
2022/03/30 10:24:17;;;;;;;17.17;8.90;;;;;;;15.32;43.29;100701.44;4939600;28;20050;-55
2022/03/30 10:26:59;;;;;;;19.90;9.43;;;;;;;15.30;42.98;100705.84;4928972;28;20533;-55
2022/03/30 10:29:26;;;;;;;31.65;9.30;;;;;;;15.39;42.87;100706.63;4935995;28;20055;-51
2022/03/30 10:32:08;;;;;;;13.65;8.60;;;;;;;14.88;42.97;100707.06;4929946;28;20957;-52
2022/03/30 10:34:40;;;;;;;16.40;8.60;;;;;;;14.26;44.20;100707.38;4937012;28;20042;-54
2022/03/30 10:37:09;;;;;;;15.40;8.30;;;;;;;14.35;44.63;100708.19;4936473;28;20046;-55
2022/03/30 10:39:52;;;;;;;13.38;8.32;;;;;;;14.58;43.53;100697.59;4937015;28;20051;-55
2022/03/30 10:42:18;;;;;;;15.18;7.97;;;;;;;14.56;44.10;100702.88;4935412;28;20057;-51
2022/03/30 10:44:46;;;;;;;12.88;7.93;;;;;;;14.68;44.46;100696.69;4931072;28;20039;-50
2022/03/30 10:47:21;;;;;;;13.10;7.80;;;;;;;14.89;44.66;100699.16;4935152;28;20050;-54
2022/03/30 10:49:48;;;;;;;12.43;7.40;;;;;;;14.96;44.01;100692.97;4936010;28;20047;-54
2022/03/30 10:52:29;;;;;;;15.02;7.63;;;;;;;15.35;43.36;100696.19;4935903;28;20217;-52
2022/03/30 10:55:13;;;;;;;13.27;7.40;;;;;;;15.31;41.45;100690.06;4934920;28;20554;-52
2022/03/30 10:57:58;;;;;;;19.07;7.43;;;;;;;15.57;42.86;100689.84;4929576;28;20402;-54
2022/03/30 11:00:29;;;;;;;14.02;7.18;;;;;;;15.67;41.79;100677.50;4938051;28;20648;-54
2022/03/30 11:03:26;;;;;;;11.25;6.85;;;;;;;15.61;42.94;100672.31;4934894;28;21284;-52
2022/03/30 11:06:01;;;;;;;14.52;7.40;;;;;;;14.81;42.34;100668.59;4928484;28;20059;-50
2022/03/30 11:08:32;;;;;;;;;;;;;;;15.13;42.45;100665.72;4939625;28;20150;-53
2022/03/30 11:11:01;;;;;;;13.82;7.30;;;;;;;15.33;41.30;100659.41;4926627;28;20004;-52
2022/03/30 11:13:27;;;;;;;12.32;7.60;;;;;;;15.01;42.93;100656.19;4936980;28;20077;-50
2022/03/30 11:16:03;;;;;;;10.80;7.10;;;;;;;14.95;43.29;100656.22;4938559;28;20158;-51
2022/03/30 11:18:32;;;;;;;14.75;7.50;;;;;;;15.28;42.28;100652.47;4939029;28;20042;-54
2022/03/30 11:21:13;;;;;;;12.18;7.10;;;;;;;14.88;42.13;100650.16;4933936;28;20533;-52
2022/03/30 11:23:39;;;;;;;11.95;6.68;;;;;;;15.09;41.17;100638.63;4931497;28;20046;-54
2022/03/30 11:26:05;;;;;;;14.52;6.38;;;;;;;15.24;41.56;100643.75;4937558;28;20363;-55